sensor_id;sensor_type;location;lat;lon;timestamp;P1;durP1;ratioP1;P2;durP2;ratioP2
69185;SDS011;56298;49.246;9.410;2023-04-03T00:00:04;5.77;;;1.80;;
69185;SDS011;56298;49.246;9.410;2023-04-03T00:02:30;5.05;;;1.60;;
69185;SDS011;56298;49.246;9.410;2023-04-03T00:04:56;5.00;;;1.50;;
69185;SDS011;56298;49.246;9.410;2023-04-03T00:07:21;4.77;;;1.70;;
69185;SDS011;56298;49.246;9.410;2023-04-03T00:09:46;5.23;;;1.60;;
69185;SDS011;56298;49.246;9.410;2023-04-03T00:12:11;5.53;;;1.47;;
69185;SDS011;56298;49.246;9.410;2023-04-03T00:14:37;3.70;;;1.40;;
69185;SDS011;56298;49.246;9.410;2023-04-03T00:17:02;5.57;;;1.20;;
69185;SDS011;56298;49.246;9.410;2023-04-03T00:19:27;4.33;;;1.40;;
69185;SDS011;56298;49.246;9.410;2023-04-03T00:21:52;4.63;;;1.50;;
69185;SDS011;56298;49.246;9.410;2023-04-03T00:24:18;4.60;;;1.53;;
69185;SDS011;56298;49.246;9.410;2023-04-03T00:26:43;4.97;;;1.47;;
69185;SDS011;56298;49.246;9.410;2023-04-03T00:29:09;4.70;;;1.37;;
69185;SDS011;56298;49.246;9.410;2023-04-03T00:31:34;5.73;;;1.63;;
69185;SDS011;56298;49.246;9.410;2023-04-03T00:33:59;4.33;;;1.60;;
69185;SDS011;56298;49.246;9.410;2023-04-03T00:36:25;5.50;;;1.63;;
69185;SDS011;56298;49.246;9.410;2023-04-03T00:38:50;5.20;;;1.73;;
69185;SDS011;56298;49.246;9.410;2023-04-03T00:41:15;4.37;;;1.60;;
69185;SDS011;56298;49.246;9.410;2023-04-03T00:43:40;5.30;;;1.73;;
69185;SDS011;56298;49.246;9.410;2023-04-03T00:46:06;4.87;;;1.63;;
69185;SDS011;56298;49.246;9.410;2023-04-03T00:48:32;4.50;;;1.43;;
69185;SDS011;56298;49.246;9.410;2023-04-03T00:51:02;6.22;;;1.48;;
69185;SDS011;56298;49.246;9.410;2023-04-03T00:53:31;4.80;;;1.50;;
69185;SDS011;56298;49.246;9.410;2023-04-03T00:56:21;3.90;;;1.30;;
69185;SDS011;56298;49.246;9.410;2023-04-03T00:58:51;4.60;;;1.50;;
69185;SDS011;56298;49.246;9.410;2023-04-03T01:01:36;4.70;;;1.60;;
69185;SDS011;56298;49.246;9.410;2023-04-03T01:04:02;4.72;;;1.30;;
69185;SDS011;56298;49.246;9.410;2023-04-03T01:06:29;5.50;;;1.57;;
69185;SDS011;56298;49.246;9.410;2023-04-03T01:08:57;5.10;;;1.35;;
69185;SDS011;56298;49.246;9.410;2023-04-03T01:11:24;5.33;;;1.50;;
69185;SDS011;56298;49.246;9.410;2023-04-03T01:13:51;4.30;;;1.60;;
69185;SDS011;56298;49.246;9.410;2023-04-03T01:16:16;4.10;;;1.30;;
69185;SDS011;56298;49.246;9.410;2023-04-03T01:18:41;4.93;;;1.40;;
69185;SDS011;56298;49.246;9.410;2023-04-03T01:21:16;6.43;;;1.87;;
69185;SDS011;56298;49.246;9.410;2023-04-03T01:24:01;5.82;;;1.70;;
69185;SDS011;56298;49.246;9.410;2023-04-03T01:26:30;5.95;;;1.60;;
69185;SDS011;56298;49.246;9.410;2023-04-03T01:28:58;4.68;;;1.60;;
69185;SDS011;56298;49.246;9.410;2023-04-03T01:31:25;6.43;;;1.40;;
69185;SDS011;56298;49.246;9.410;2023-04-03T01:33:55;6.10;;;1.60;;
69185;SDS011;56298;49.246;9.410;2023-04-03T01:36:24;4.40;;;1.30;;
69185;SDS011;56298;49.246;9.410;2023-04-03T01:38:52;4.53;;;1.52;;
69185;SDS011;56298;49.246;9.410;2023-04-03T01:41:18;5.40;;;1.60;;
69185;SDS011;56298;49.246;9.410;2023-04-03T01:43:43;5.18;;;1.35;;
69185;SDS011;56298;49.246;9.410;2023-04-03T01:46:09;5.45;;;1.60;;
69185;SDS011;56298;49.246;9.410;2023-04-03T01:48:35;5.32;;;1.45;;
69185;SDS011;56298;49.246;9.410;2023-04-03T01:51:00;5.80;;;1.70;;
69185;SDS011;56298;49.246;9.410;2023-04-03T01:53:25;5.67;;;1.50;;
69185;SDS011;56298;49.246;9.410;2023-04-03T01:55:51;4.70;;;1.40;;
69185;SDS011;56298;49.246;9.410;2023-04-03T01:58:16;5.23;;;1.60;;
69185;SDS011;56298;49.246;9.410;2023-04-03T02:00:41;5.13;;;1.60;;
69185;SDS011;56298;49.246;9.410;2023-04-03T02:03:07;5.60;;;1.70;;
69185;SDS011;56298;49.246;9.410;2023-04-03T02:05:32;5.47;;;1.60;;
69185;SDS011;56298;49.246;9.410;2023-04-03T02:07:57;5.00;;;1.40;;
69185;SDS011;56298;49.246;9.410;2023-04-03T02:10:23;5.33;;;1.47;;
69185;SDS011;56298;49.246;9.410;2023-04-03T02:12:48;5.73;;;1.60;;
69185;SDS011;56298;49.246;9.410;2023-04-03T02:15:13;5.07;;;1.53;;
69185;SDS011;56298;49.246;9.410;2023-04-03T02:17:39;4.93;;;1.77;;
69185;SDS011;56298;49.246;9.410;2023-04-03T02:20:04;4.55;;;1.60;;
69185;SDS011;56298;49.246;9.410;2023-04-03T02:22:30;5.20;;;1.60;;
69185;SDS011;56298;49.246;9.410;2023-04-03T02:24:55;5.90;;;1.60;;
69185;SDS011;56298;49.246;9.410;2023-04-03T02:27:21;5.40;;;1.90;;
69185;SDS011;56298;49.246;9.410;2023-04-03T02:29:46;5.50;;;1.83;;
69185;SDS011;56298;49.246;9.410;2023-04-03T02:32:11;6.63;;;1.77;;
69185;SDS011;56298;49.246;9.410;2023-04-03T02:34:36;5.43;;;1.80;;
69185;SDS011;56298;49.246;9.410;2023-04-03T02:37:01;5.22;;;1.63;;
69185;SDS011;56298;49.246;9.410;2023-04-03T02:39:27;4.17;;;1.50;;
69185;SDS011;56298;49.246;9.410;2023-04-03T02:41:52;5.20;;;1.48;;
69185;SDS011;56298;49.246;9.410;2023-04-03T02:44:18;5.87;;;1.60;;
69185;SDS011;56298;49.246;9.410;2023-04-03T02:46:43;5.73;;;1.53;;
69185;SDS011;56298;49.246;9.410;2023-04-03T02:49:09;5.28;;;1.67;;
69185;SDS011;56298;49.246;9.410;2023-04-03T02:51:34;5.43;;;1.80;;
69185;SDS011;56298;49.246;9.410;2023-04-03T02:53:59;5.07;;;1.50;;
69185;SDS011;56298;49.246;9.410;2023-04-03T02:56:25;4.77;;;1.47;;
69185;SDS011;56298;49.246;9.410;2023-04-03T02:58:51;4.32;;;1.63;;
69185;SDS011;56298;49.246;9.410;2023-04-03T03:01:17;6.10;;;1.70;;
69185;SDS011;56298;49.246;9.410;2023-04-03T03:03:43;5.30;;;1.75;;
69185;SDS011;56298;49.246;9.410;2023-04-03T03:06:10;6.00;;;1.60;;
69185;SDS011;56298;49.246;9.410;2023-04-03T03:08:37;6.37;;;1.80;;
69185;SDS011;56298;49.246;9.410;2023-04-03T03:11:03;5.22;;;1.70;;
69185;SDS011;56298;49.246;9.410;2023-04-03T03:13:29;5.75;;;1.80;;
69185;SDS011;56298;49.246;9.410;2023-04-03T03:15:55;5.13;;;1.70;;
69185;SDS011;56298;49.246;9.410;2023-04-03T03:18:21;5.73;;;1.93;;
69185;SDS011;56298;49.246;9.410;2023-04-03T03:20:47;4.90;;;1.83;;
69185;SDS011;56298;49.246;9.410;2023-04-03T03:23:16;5.97;;;2.00;;
69185;SDS011;56298;49.246;9.410;2023-04-03T03:25:41;7.93;;;2.10;;
69185;SDS011;56298;49.246;9.410;2023-04-03T03:28:07;5.27;;;1.97;;
69185;SDS011;56298;49.246;9.410;2023-04-03T03:30:32;5.60;;;2.00;;
69185;SDS011;56298;49.246;9.410;2023-04-03T03:32:58;5.60;;;2.20;;
69185;SDS011;56298;49.246;9.410;2023-04-03T03:35:23;6.17;;;1.97;;
69185;SDS011;56298;49.246;9.410;2023-04-03T03:37:49;5.37;;;1.80;;
69185;SDS011;56298;49.246;9.410;2023-04-03T03:40:14;5.80;;;2.00;;
69185;SDS011;56298;49.246;9.410;2023-04-03T03:42:40;5.57;;;1.80;;
69185;SDS011;56298;49.246;9.410;2023-04-03T03:45:05;4.93;;;1.83;;
69185;SDS011;56298;49.246;9.410;2023-04-03T03:47:31;5.47;;;1.87;;
69185;SDS011;56298;49.246;9.410;2023-04-03T03:49:56;5.90;;;2.10;;
69185;SDS011;56298;49.246;9.410;2023-04-03T03:52:22;5.70;;;1.90;;
69185;SDS011;56298;49.246;9.410;2023-04-03T03:54:47;5.80;;;1.67;;
69185;SDS011;56298;49.246;9.410;2023-04-03T03:57:12;5.10;;;2.00;;
69185;SDS011;56298;49.246;9.410;2023-04-03T03:59:38;6.50;;;2.10;;
69185;SDS011;56298;49.246;9.410;2023-04-03T04:02:05;6.07;;;1.98;;
69185;SDS011;56298;49.246;9.410;2023-04-03T04:04:30;5.60;;;1.97;;
69185;SDS011;56298;49.246;9.410;2023-04-03T04:06:55;5.13;;;1.93;;
69185;SDS011;56298;49.246;9.410;2023-04-03T04:09:21;6.13;;;2.10;;
69185;SDS011;56298;49.246;9.410;2023-04-03T04:11:46;6.87;;;2.00;;
69185;SDS011;56298;49.246;9.410;2023-04-03T04:14:11;7.10;;;2.40;;
69185;SDS011;56298;49.246;9.410;2023-04-03T04:16:38;5.72;;;1.98;;
69185;SDS011;56298;49.246;9.410;2023-04-03T04:19:03;6.40;;;2.33;;
69185;SDS011;56298;49.246;9.410;2023-04-03T04:21:28;5.30;;;1.97;;
69185;SDS011;56298;49.246;9.410;2023-04-03T04:23:54;5.93;;;2.17;;
69185;SDS011;56298;49.246;9.410;2023-04-03T04:26:19;7.47;;;2.10;;
69185;SDS011;56298;49.246;9.410;2023-04-03T04:28:46;6.80;;;2.40;;
69185;SDS011;56298;49.246;9.410;2023-04-03T04:31:11;6.03;;;2.40;;
69185;SDS011;56298;49.246;9.410;2023-04-03T04:33:36;6.47;;;2.33;;
69185;SDS011;56298;49.246;9.410;2023-04-03T04:36:01;6.37;;;2.33;;
69185;SDS011;56298;49.246;9.410;2023-04-03T04:38:27;6.07;;;2.58;;
69185;SDS011;56298;49.246;9.410;2023-04-03T04:40:52;6.60;;;2.50;;
69185;SDS011;56298;49.246;9.410;2023-04-03T04:43:17;5.50;;;2.40;;
69185;SDS011;56298;49.246;9.410;2023-04-03T04:45:43;5.80;;;2.67;;
69185;SDS011;56298;49.246;9.410;2023-04-03T04:48:08;6.50;;;2.63;;
69185;SDS011;56298;49.246;9.410;2023-04-03T04:50:33;7.70;;;2.60;;
69185;SDS011;56298;49.246;9.410;2023-04-03T04:52:59;7.10;;;2.53;;
69185;SDS011;56298;49.246;9.410;2023-04-03T04:55:24;5.73;;;2.40;;
69185;SDS011;56298;49.246;9.410;2023-04-03T04:57:49;6.13;;;2.47;;
69185;SDS011;56298;49.246;9.410;2023-04-03T05:00:15;5.57;;;2.37;;
69185;SDS011;56298;49.246;9.410;2023-04-03T05:02:41;7.40;;;2.60;;
69185;SDS011;56298;49.246;9.410;2023-04-03T05:05:06;6.70;;;2.70;;
69185;SDS011;56298;49.246;9.410;2023-04-03T05:07:31;7.53;;;3.07;;
69185;SDS011;56298;49.246;9.410;2023-04-03T05:09:57;6.37;;;2.67;;
69185;SDS011;56298;49.246;9.410;2023-04-03T05:12:22;6.50;;;2.70;;
69185;SDS011;56298;49.246;9.410;2023-04-03T05:14:47;6.85;;;2.50;;
69185;SDS011;56298;49.246;9.410;2023-04-03T05:17:13;6.70;;;2.70;;
69185;SDS011;56298;49.246;9.410;2023-04-03T05:19:38;6.87;;;2.80;;
69185;SDS011;56298;49.246;9.410;2023-04-03T05:22:03;7.57;;;2.80;;
69185;SDS011;56298;49.246;9.410;2023-04-03T05:24:29;7.22;;;2.60;;
69185;SDS011;56298;49.246;9.410;2023-04-03T05:26:54;6.53;;;2.60;;
69185;SDS011;56298;49.246;9.410;2023-04-03T05:29:19;6.50;;;2.67;;
69185;SDS011;56298;49.246;9.410;2023-04-03T05:31:45;7.30;;;2.60;;
69185;SDS011;56298;49.246;9.410;2023-04-03T05:34:11;7.00;;;2.57;;
69185;SDS011;56298;49.246;9.410;2023-04-03T05:36:36;6.57;;;3.00;;
69185;SDS011;56298;49.246;9.410;2023-04-03T05:39:01;7.97;;;2.70;;
69185;SDS011;56298;49.246;9.410;2023-04-03T05:41:27;6.38;;;2.60;;
69185;SDS011;56298;49.246;9.410;2023-04-03T05:43:52;5.63;;;2.70;;
69185;SDS011;56298;49.246;9.410;2023-04-03T05:46:18;6.50;;;2.50;;
69185;SDS011;56298;49.246;9.410;2023-04-03T05:48:45;6.18;;;2.70;;
69185;SDS011;56298;49.246;9.410;2023-04-03T05:51:18;6.53;;;2.50;;
69185;SDS011;56298;49.246;9.410;2023-04-03T05:53:55;6.75;;;2.50;;
69185;SDS011;56298;49.246;9.410;2023-04-03T05:56:25;6.90;;;2.80;;
69185;SDS011;56298;49.246;9.410;2023-04-03T05:58:50;7.10;;;2.77;;
69185;SDS011;56298;49.246;9.410;2023-04-03T06:01:18;7.80;;;2.60;;
69185;SDS011;56298;49.246;9.410;2023-04-03T06:03:46;6.63;;;2.78;;
69185;SDS011;56298;49.246;9.410;2023-04-03T06:06:13;6.95;;;2.88;;
69185;SDS011;56298;49.246;9.410;2023-04-03T06:08:39;6.65;;;3.00;;
69185;SDS011;56298;49.246;9.410;2023-04-03T06:11:04;6.72;;;2.72;;
69185;SDS011;56298;49.246;9.410;2023-04-03T06:13:30;7.03;;;2.80;;
69185;SDS011;56298;49.246;9.410;2023-04-03T06:15:55;6.37;;;2.70;;
69185;SDS011;56298;49.246;9.410;2023-04-03T06:18:21;5.65;;;2.60;;
69185;SDS011;56298;49.246;9.410;2023-04-03T06:20:46;6.60;;;3.00;;
69185;SDS011;56298;49.246;9.410;2023-04-03T06:23:11;6.50;;;2.67;;
69185;SDS011;56298;49.246;9.410;2023-04-03T06:25:37;6.70;;;2.90;;
69185;SDS011;56298;49.246;9.410;2023-04-03T06:28:04;6.73;;;2.87;;
69185;SDS011;56298;49.246;9.410;2023-04-03T06:30:36;7.60;;;3.15;;
69185;SDS011;56298;49.246;9.410;2023-04-03T06:33:02;7.40;;;3.05;;
69185;SDS011;56298;49.246;9.410;2023-04-03T06:35:28;7.07;;;3.00;;
69185;SDS011;56298;49.246;9.410;2023-04-03T06:37:55;7.40;;;3.15;;
69185;SDS011;56298;49.246;9.410;2023-04-03T06:40:23;7.73;;;3.23;;
69185;SDS011;56298;49.246;9.410;2023-04-03T06:42:51;6.50;;;3.20;;
69185;SDS011;56298;49.246;9.410;2023-04-03T06:45:16;6.50;;;3.27;;
69185;SDS011;56298;49.246;9.410;2023-04-03T06:47:41;6.47;;;3.13;;
69185;SDS011;56298;49.246;9.410;2023-04-03T06:50:08;7.87;;;3.00;;
69185;SDS011;56298;49.246;9.410;2023-04-03T06:52:36;6.63;;;3.28;;
69185;SDS011;56298;49.246;9.410;2023-04-03T06:55:01;7.93;;;3.47;;
69185;SDS011;56298;49.246;9.410;2023-04-03T06:57:27;7.60;;;3.30;;
69185;SDS011;56298;49.246;9.410;2023-04-03T06:59:52;7.10;;;3.20;;
69185;SDS011;56298;49.246;9.410;2023-04-03T07:02:17;6.80;;;3.33;;
69185;SDS011;56298;49.246;9.410;2023-04-03T07:04:43;6.53;;;3.17;;
69185;SDS011;56298;49.246;9.410;2023-04-03T07:07:08;8.18;;;3.50;;
69185;SDS011;56298;49.246;9.410;2023-04-03T07:09:34;8.43;;;3.43;;
69185;SDS011;56298;49.246;9.410;2023-04-03T07:11:59;8.60;;;3.27;;
69185;SDS011;56298;49.246;9.410;2023-04-03T07:14:24;6.13;;;2.87;;
69185;SDS011;56298;49.246;9.410;2023-04-03T07:16:50;8.57;;;3.03;;
69185;SDS011;56298;49.246;9.410;2023-04-03T07:19:15;7.80;;;3.23;;
69185;SDS011;56298;49.246;9.410;2023-04-03T07:21:43;6.82;;;3.10;;
69185;SDS011;56298;49.246;9.410;2023-04-03T07:24:08;8.13;;;2.80;;
69185;SDS011;56298;49.246;9.410;2023-04-03T07:26:33;7.33;;;3.10;;
69185;SDS011;56298;49.246;9.410;2023-04-03T07:28:59;6.80;;;2.50;;
69185;SDS011;56298;49.246;9.410;2023-04-03T07:31:24;6.90;;;2.87;;
69185;SDS011;56298;49.246;9.410;2023-04-03T07:33:52;7.88;;;2.53;;
69185;SDS011;56298;49.246;9.410;2023-04-03T07:36:18;7.03;;;2.70;;
69185;SDS011;56298;49.246;9.410;2023-04-03T07:38:45;6.35;;;2.78;;
69185;SDS011;56298;49.246;9.410;2023-04-03T07:41:12;6.38;;;2.70;;
69185;SDS011;56298;49.246;9.410;2023-04-03T07:43:40;6.23;;;2.63;;
69185;SDS011;56298;49.246;9.410;2023-04-03T07:46:06;7.63;;;2.63;;
69185;SDS011;56298;49.246;9.410;2023-04-03T07:48:31;7.40;;;2.90;;
69185;SDS011;56298;49.246;9.410;2023-04-03T07:50:59;6.85;;;2.55;;
69185;SDS011;56298;49.246;9.410;2023-04-03T07:53:26;6.70;;;2.50;;
69185;SDS011;56298;49.246;9.410;2023-04-03T07:55:52;8.10;;;2.70;;
69185;SDS011;56298;49.246;9.410;2023-04-03T07:58:20;6.63;;;2.50;;
69185;SDS011;56298;49.246;9.410;2023-04-03T08:00:46;8.60;;;2.50;;
69185;SDS011;56298;49.246;9.410;2023-04-03T08:03:12;6.20;;;2.70;;
69185;SDS011;56298;49.246;9.410;2023-04-03T08:05:41;7.00;;;2.60;;
69185;SDS011;56298;49.246;9.410;2023-04-03T08:08:07;7.38;;;2.45;;
69185;SDS011;56298;49.246;9.410;2023-04-03T08:10:35;5.87;;;2.53;;
69185;SDS011;56298;49.246;9.410;2023-04-03T08:13:00;6.97;;;2.50;;
69185;SDS011;56298;49.246;9.410;2023-04-03T08:15:26;7.85;;;2.78;;
69185;SDS011;56298;49.246;9.410;2023-04-03T08:17:51;6.05;;;2.40;;
69185;SDS011;56298;49.246;9.410;2023-04-03T08:20:17;6.67;;;2.60;;
69185;SDS011;56298;49.246;9.410;2023-04-03T08:22:42;6.72;;;2.40;;
69185;SDS011;56298;49.246;9.410;2023-04-03T08:25:08;5.97;;;2.53;;
69185;SDS011;56298;49.246;9.410;2023-04-03T08:27:33;6.57;;;2.63;;
69185;SDS011;56298;49.246;9.410;2023-04-03T08:29:59;6.00;;;2.50;;
69185;SDS011;56298;49.246;9.410;2023-04-03T08:32:24;5.50;;;2.60;;
69185;SDS011;56298;49.246;9.410;2023-04-03T08:34:50;8.20;;;2.90;;
69185;SDS011;56298;49.246;9.410;2023-04-03T08:37:15;5.87;;;2.43;;
69185;SDS011;56298;49.246;9.410;2023-04-03T08:39:41;6.27;;;2.63;;
69185;SDS011;56298;49.246;9.410;2023-04-03T08:42:14;7.28;;;2.40;;
69185;SDS011;56298;49.246;9.410;2023-04-03T08:44:53;6.90;;;2.55;;
69185;SDS011;56298;49.246;9.410;2023-04-03T08:47:41;6.63;;;2.40;;
69185;SDS011;56298;49.246;9.410;2023-04-03T08:50:17;5.78;;;2.50;;
69185;SDS011;56298;49.246;9.410;2023-04-03T08:52:53;6.63;;;2.40;;
69185;SDS011;56298;49.246;9.410;2023-04-03T08:55:26;7.37;;;2.50;;
69185;SDS011;56298;49.246;9.410;2023-04-03T09:00:34;7.40;;;2.53;;
69185;SDS011;56298;49.246;9.410;2023-04-03T09:03:11;6.18;;;2.50;;
69185;SDS011;56298;49.246;9.410;2023-04-03T09:05:43;6.70;;;2.42;;
69185;SDS011;56298;49.246;9.410;2023-04-03T09:08:18;6.00;;;2.40;;
69185;SDS011;56298;49.246;9.410;2023-04-03T09:10:46;7.35;;;2.35;;
69185;SDS011;56298;49.246;9.410;2023-04-03T09:13:13;6.20;;;2.60;;
69185;SDS011;56298;49.246;9.410;2023-04-03T09:15:47;6.43;;;2.40;;
69185;SDS011;56298;49.246;9.410;2023-04-03T09:26:19;5.78;;;2.47;;
69185;SDS011;56298;49.246;9.410;2023-04-03T09:28:49;6.63;;;2.50;;
69185;SDS011;56298;49.246;9.410;2023-04-03T09:31:19;7.90;;;2.33;;
69185;SDS011;56298;49.246;9.410;2023-04-03T09:33:45;6.88;;;2.53;;
69185;SDS011;56298;49.246;9.410;2023-04-03T09:36:12;6.53;;;2.30;;
69185;SDS011;56298;49.246;9.410;2023-04-03T09:38:38;6.18;;;2.47;;
69185;SDS011;56298;49.246;9.410;2023-04-03T09:41:12;6.35;;;2.30;;
69185;SDS011;56298;49.246;9.410;2023-04-03T09:43:40;6.95;;;2.40;;
69185;SDS011;56298;49.246;9.410;2023-04-03T09:46:33;6.00;;;2.40;;
69185;SDS011;56298;49.246;9.410;2023-04-03T09:49:00;6.05;;;2.40;;
69185;SDS011;56298;49.246;9.410;2023-04-03T09:51:28;6.88;;;2.55;;
69185;SDS011;56298;49.246;9.410;2023-04-03T09:53:55;6.63;;;2.40;;
69185;SDS011;56298;49.246;9.410;2023-04-03T09:56:22;6.72;;;2.30;;
69185;SDS011;56298;49.246;9.410;2023-04-03T10:01:32;5.60;;;2.50;;
69185;SDS011;56298;49.246;9.410;2023-04-03T10:06:35;6.03;;;2.40;;
69185;SDS011;56298;49.246;9.410;2023-04-03T10:09:10;6.32;;;2.38;;
69185;SDS011;56298;49.246;9.410;2023-04-03T10:11:44;6.38;;;2.40;;
69185;SDS011;56298;49.246;9.410;2023-04-03T10:14:21;7.15;;;2.40;;
69185;SDS011;56298;49.246;9.410;2023-04-03T10:16:48;6.77;;;2.40;;
69185;SDS011;56298;49.246;9.410;2023-04-03T10:19:30;6.73;;;2.60;;
69185;SDS011;56298;49.246;9.410;2023-04-03T10:22:07;4.83;;;2.13;;
69185;SDS011;56298;49.246;9.410;2023-04-03T10:27:33;5.38;;;2.05;;
69185;SDS011;56298;49.246;9.410;2023-04-03T10:33:39;4.65;;;1.90;;
69185;SDS011;56298;49.246;9.410;2023-04-03T10:44:17;5.40;;;2.10;;
69185;SDS011;56298;49.246;9.410;2023-04-03T10:47:17;5.60;;;1.80;;
69185;SDS011;56298;49.246;9.410;2023-04-03T10:49:51;5.68;;;1.75;;
69185;SDS011;56298;49.246;9.410;2023-04-03T10:55:31;5.30;;;2.10;;
69185;SDS011;56298;49.246;9.410;2023-04-03T10:58:01;5.60;;;2.10;;
69185;SDS011;56298;49.246;9.410;2023-04-03T11:00:41;6.93;;;2.45;;
69185;SDS011;56298;49.246;9.410;2023-04-03T11:03:14;7.50;;;2.15;;
69185;SDS011;56298;49.246;9.410;2023-04-03T11:05:51;6.63;;;2.30;;
69185;SDS011;56298;49.246;9.410;2023-04-03T11:08:24;5.35;;;1.90;;
69185;SDS011;56298;49.246;9.410;2023-04-03T11:10:55;5.05;;;1.90;;
69185;SDS011;56298;49.246;9.410;2023-04-03T11:16:33;6.03;;;1.60;;
69185;SDS011;56298;49.246;9.410;2023-04-03T11:19:17;6.03;;;1.83;;
69185;SDS011;56298;49.246;9.410;2023-04-03T11:24:37;4.97;;;1.93;;
69185;SDS011;56298;49.246;9.410;2023-04-03T11:27:08;5.40;;;1.93;;
69185;SDS011;56298;49.246;9.410;2023-04-03T11:29:41;6.50;;;1.77;;
69185;SDS011;56298;49.246;9.410;2023-04-03T11:32:21;5.68;;;1.90;;
69185;SDS011;56298;49.246;9.410;2023-04-03T11:35:11;5.73;;;1.93;;
69185;SDS011;56298;49.246;9.410;2023-04-03T11:37:39;6.45;;;1.80;;
69185;SDS011;56298;49.246;9.410;2023-04-03T11:42:42;6.47;;;2.00;;
69185;SDS011;56298;49.246;9.410;2023-04-03T11:47:48;5.43;;;1.90;;
69185;SDS011;56298;49.246;9.410;2023-04-03T12:05:52;6.57;;;1.80;;
69185;SDS011;56298;49.246;9.410;2023-04-03T12:16:29;5.85;;;1.85;;
69185;SDS011;56298;49.246;9.410;2023-04-03T12:18:59;4.88;;;1.50;;
69185;SDS011;56298;49.246;9.410;2023-04-03T12:32:12;4.43;;;1.70;;
69185;SDS011;56298;49.246;9.410;2023-04-03T12:35:04;6.57;;;2.00;;
69185;SDS011;56298;49.246;9.410;2023-04-03T12:45:26;5.20;;;1.80;;
69185;SDS011;56298;49.246;9.410;2023-04-03T12:47:54;6.30;;;1.90;;
69185;SDS011;56298;49.246;9.410;2023-04-03T12:52:59;4.83;;;1.60;;
69185;SDS011;56298;49.246;9.410;2023-04-03T12:55:28;4.90;;;1.80;;
69185;SDS011;56298;49.246;9.410;2023-04-03T12:57:54;6.17;;;1.83;;
69185;SDS011;56298;49.246;9.410;2023-04-03T13:02:45;5.57;;;1.85;;
69185;SDS011;56298;49.246;9.410;2023-04-03T13:05:13;6.18;;;1.80;;
69185;SDS011;56298;49.246;9.410;2023-04-03T13:07:42;5.72;;;1.83;;
69185;SDS011;56298;49.246;9.410;2023-04-03T13:12:55;4.90;;;1.90;;
69185;SDS011;56298;49.246;9.410;2023-04-03T13:17:49;6.15;;;1.90;;
69185;SDS011;56298;49.246;9.410;2023-04-03T13:20:22;5.50;;;1.60;;
69185;SDS011;56298;49.246;9.410;2023-04-03T13:22:52;5.50;;;1.90;;
69185;SDS011;56298;49.246;9.410;2023-04-03T13:25:21;4.65;;;1.70;;
69185;SDS011;56298;49.246;9.410;2023-04-03T13:27:49;5.63;;;1.80;;
69185;SDS011;56298;49.246;9.410;2023-04-03T13:30:23;4.30;;;1.43;;
69185;SDS011;56298;49.246;9.410;2023-04-03T13:32:52;5.40;;;1.95;;
69185;SDS011;56298;49.246;9.410;2023-04-03T13:38:00;5.17;;;1.73;;
69185;SDS011;56298;49.246;9.410;2023-04-03T13:40:28;5.60;;;1.85;;
69185;SDS011;56298;49.246;9.410;2023-04-03T13:43:00;6.60;;;1.90;;
69185;SDS011;56298;49.246;9.410;2023-04-03T13:45:28;5.40;;;1.97;;
69185;SDS011;56298;49.246;9.410;2023-04-03T13:48:09;5.03;;;2.03;;
69185;SDS011;56298;49.246;9.410;2023-04-03T13:53:31;6.28;;;1.95;;
69185;SDS011;56298;49.246;9.410;2023-04-03T13:55:59;5.00;;;1.50;;
69185;SDS011;56298;49.246;9.410;2023-04-03T13:58:26;5.18;;;1.80;;
69185;SDS011;56298;49.246;9.410;2023-04-03T14:01:07;6.15;;;1.90;;
69185;SDS011;56298;49.246;9.410;2023-04-03T14:03:43;4.93;;;1.70;;
69185;SDS011;56298;49.246;9.410;2023-04-03T14:06:12;5.25;;;1.75;;
69185;SDS011;56298;49.246;9.410;2023-04-03T14:08:40;5.95;;;1.92;;
69185;SDS011;56298;49.246;9.410;2023-04-03T14:11:07;4.85;;;1.92;;
69185;SDS011;56298;49.246;9.410;2023-04-03T14:13:37;4.60;;;1.92;;
69185;SDS011;56298;49.246;9.410;2023-04-03T14:16:02;6.17;;;2.00;;
69185;SDS011;56298;49.246;9.410;2023-04-03T14:18:28;6.43;;;2.00;;
69185;SDS011;56298;49.246;9.410;2023-04-03T14:20:53;5.70;;;1.87;;
69185;SDS011;56298;49.246;9.410;2023-04-03T14:23:18;6.37;;;2.00;;
69185;SDS011;56298;49.246;9.410;2023-04-03T14:25:45;6.13;;;2.10;;
69185;SDS011;56298;49.246;9.410;2023-04-03T14:28:14;6.83;;;2.10;;
69185;SDS011;56298;49.246;9.410;2023-04-03T14:30:44;5.50;;;2.10;;
69185;SDS011;56298;49.246;9.410;2023-04-03T14:33:12;5.88;;;2.03;;
69185;SDS011;56298;49.246;9.410;2023-04-03T14:35:40;6.13;;;2.10;;
69185;SDS011;56298;49.246;9.410;2023-04-03T14:38:19;5.23;;;2.10;;
69185;SDS011;56298;49.246;9.410;2023-04-03T14:40:47;4.75;;;2.00;;
69185;SDS011;56298;49.246;9.410;2023-04-03T14:43:13;5.45;;;2.20;;
69185;SDS011;56298;49.246;9.410;2023-04-03T14:45:38;5.00;;;2.10;;
69185;SDS011;56298;49.246;9.410;2023-04-03T14:48:04;94.37;;;7.03;;
69185;SDS011;56298;49.246;9.410;2023-04-03T14:50:34;5.78;;;2.03;;
69185;SDS011;56298;49.246;9.410;2023-04-03T14:53:00;5.70;;;1.97;;
69185;SDS011;56298;49.246;9.410;2023-04-03T14:55:25;5.63;;;2.00;;
69185;SDS011;56298;49.246;9.410;2023-04-03T14:57:51;6.07;;;2.28;;
69185;SDS011;56298;49.246;9.410;2023-04-03T15:00:18;5.40;;;2.08;;
69185;SDS011;56298;49.246;9.410;2023-04-03T15:02:45;5.03;;;1.90;;
69185;SDS011;56298;49.246;9.410;2023-04-03T15:05:12;5.83;;;2.00;;
69185;SDS011;56298;49.246;9.410;2023-04-03T15:07:39;4.50;;;1.70;;
69185;SDS011;56298;49.246;9.410;2023-04-03T15:10:20;4.90;;;1.70;;
69185;SDS011;56298;49.246;9.410;2023-04-03T15:12:55;5.43;;;1.80;;
69185;SDS011;56298;49.246;9.410;2023-04-03T15:15:21;6.85;;;2.08;;
69185;SDS011;56298;49.246;9.410;2023-04-03T15:17:50;5.10;;;2.03;;
69185;SDS011;56298;49.246;9.410;2023-04-03T15:20:19;4.65;;;1.73;;
69185;SDS011;56298;49.246;9.410;2023-04-03T15:22:47;5.03;;;1.92;;
69185;SDS011;56298;49.246;9.410;2023-04-03T15:25:13;5.33;;;1.70;;
69185;SDS011;56298;49.246;9.410;2023-04-03T15:27:39;4.60;;;1.77;;
69185;SDS011;56298;49.246;9.410;2023-04-03T15:30:05;5.20;;;1.73;;
69185;SDS011;56298;49.246;9.410;2023-04-03T15:32:33;5.47;;;1.75;;
69185;SDS011;56298;49.246;9.410;2023-04-03T15:34:59;6.28;;;1.80;;
69185;SDS011;56298;49.246;9.410;2023-04-03T15:37:24;5.00;;;1.80;;
69185;SDS011;56298;49.246;9.410;2023-04-03T15:39:50;4.60;;;1.77;;
69185;SDS011;56298;49.246;9.410;2023-04-03T15:42:15;4.53;;;1.70;;
69185;SDS011;56298;49.246;9.410;2023-04-03T15:44:40;5.87;;;1.70;;
69185;SDS011;56298;49.246;9.410;2023-04-03T15:47:05;5.00;;;1.53;;
69185;SDS011;56298;49.246;9.410;2023-04-03T15:49:34;4.50;;;1.50;;
69185;SDS011;56298;49.246;9.410;2023-04-03T15:52:00;5.00;;;1.45;;
69185;SDS011;56298;49.246;9.410;2023-04-03T15:54:25;4.00;;;1.50;;
69185;SDS011;56298;49.246;9.410;2023-04-03T15:56:51;4.90;;;1.67;;
69185;SDS011;56298;49.246;9.410;2023-04-03T15:59:17;5.28;;;1.52;;
69185;SDS011;56298;49.246;9.410;2023-04-03T16:01:42;4.57;;;1.40;;
69185;SDS011;56298;49.246;9.410;2023-04-03T16:04:08;4.20;;;1.50;;
69185;SDS011;56298;49.246;9.410;2023-04-03T16:06:35;5.25;;;1.50;;
69185;SDS011;56298;49.246;9.410;2023-04-03T16:09:01;5.07;;;1.50;;
69185;SDS011;56298;49.246;9.410;2023-04-03T16:11:26;5.70;;;1.57;;
69185;SDS011;56298;49.246;9.410;2023-04-03T16:13:52;4.97;;;1.40;;
69185;SDS011;56298;49.246;9.410;2023-04-03T16:16:18;4.40;;;1.63;;
69185;SDS011;56298;49.246;9.410;2023-04-03T16:18:44;5.70;;;1.60;;
69185;SDS011;56298;49.246;9.410;2023-04-03T16:21:11;5.03;;;1.67;;
69185;SDS011;56298;49.246;9.410;2023-04-03T16:23:38;5.90;;;1.70;;
69185;SDS011;56298;49.246;9.410;2023-04-03T16:26:04;5.97;;;1.93;;
69185;SDS011;56298;49.246;9.410;2023-04-03T16:28:29;5.47;;;1.87;;
69185;SDS011;56298;49.246;9.410;2023-04-03T16:30:55;6.13;;;1.77;;
69185;SDS011;56298;49.246;9.410;2023-04-03T16:33:20;4.75;;;1.73;;